sensor_id;sensor_type;location;lat;lon;timestamp;P1;durP1;ratioP1;P2;durP2;ratioP2
10633;SDS011;5365;51.640;8.106;2022-12-13T00:00:09;49.47;;;26.00;;
10633;SDS011;5365;51.640;8.106;2022-12-13T00:02:35;41.63;;;22.97;;
10633;SDS011;5365;51.640;8.106;2022-12-13T00:04:57;47.63;;;22.20;;
10633;SDS011;5365;51.640;8.106;2022-12-13T00:07:19;42.93;;;22.97;;
10633;SDS011;5365;51.640;8.106;2022-12-13T00:09:41;50.90;;;24.93;;
10633;SDS011;5365;51.640;8.106;2022-12-13T00:12:03;62.23;;;27.27;;
10633;SDS011;5365;51.640;8.106;2022-12-13T00:14:25;61.53;;;28.03;;
10633;SDS011;5365;51.640;8.106;2022-12-13T00:16:47;55.83;;;26.20;;
10633;SDS011;5365;51.640;8.106;2022-12-13T00:19:09;60.43;;;28.93;;
10633;SDS011;5365;51.640;8.106;2022-12-13T00:21:31;51.47;;;26.93;;
10633;SDS011;5365;51.640;8.106;2022-12-13T00:23:53;56.10;;;28.00;;
10633;SDS011;5365;51.640;8.106;2022-12-13T00:26:17;55.77;;;29.03;;
10633;SDS011;5365;51.640;8.106;2022-12-13T00:28:50;54.13;;;28.60;;
10633;SDS011;5365;51.640;8.106;2022-12-13T00:31:12;52.40;;;26.07;;
10633;SDS011;5365;51.640;8.106;2022-12-13T00:33:53;54.57;;;25.57;;
10633;SDS011;5365;51.640;8.106;2022-12-13T00:36:15;59.90;;;27.17;;
10633;SDS011;5365;51.640;8.106;2022-12-13T00:38:37;55.73;;;27.53;;
10633;SDS011;5365;51.640;8.106;2022-12-13T00:40:59;60.10;;;25.70;;
10633;SDS011;5365;51.640;8.106;2022-12-13T00:43:21;53.07;;;26.97;;
10633;SDS011;5365;51.640;8.106;2022-12-13T00:45:42;56.43;;;26.07;;
10633;SDS011;5365;51.640;8.106;2022-12-13T00:48:05;49.60;;;24.07;;
10633;SDS011;5365;51.640;8.106;2022-12-13T00:50:27;49.03;;;24.20;;
10633;SDS011;5365;51.640;8.106;2022-12-13T00:52:48;59.03;;;25.43;;
10633;SDS011;5365;51.640;8.106;2022-12-13T00:55:10;47.97;;;22.87;;
10633;SDS011;5365;51.640;8.106;2022-12-13T00:57:32;51.00;;;23.13;;
10633;SDS011;5365;51.640;8.106;2022-12-13T00:59:54;53.03;;;25.50;;
10633;SDS011;5365;51.640;8.106;2022-12-13T01:02:16;50.60;;;24.73;;
10633;SDS011;5365;51.640;8.106;2022-12-13T01:04:37;55.83;;;23.30;;
10633;SDS011;5365;51.640;8.106;2022-12-13T01:06:59;46.60;;;22.43;;
10633;SDS011;5365;51.640;8.106;2022-12-13T01:09:22;47.20;;;22.27;;
10633;SDS011;5365;51.640;8.106;2022-12-13T01:11:47;44.80;;;22.30;;
10633;SDS011;5365;51.640;8.106;2022-12-13T01:14:10;44.80;;;23.23;;
10633;SDS011;5365;51.640;8.106;2022-12-13T01:16:31;40.13;;;22.20;;
10633;SDS011;5365;51.640;8.106;2022-12-13T01:18:55;43.90;;;23.00;;
10633;SDS011;5365;51.640;8.106;2022-12-13T01:21:18;42.47;;;22.20;;
10633;SDS011;5365;51.640;8.106;2022-12-13T01:23:41;40.80;;;20.73;;
10633;SDS011;5365;51.640;8.106;2022-12-13T01:26:04;38.97;;;21.53;;
10633;SDS011;5365;51.640;8.106;2022-12-13T01:28:26;42.30;;;20.83;;
10633;SDS011;5365;51.640;8.106;2022-12-13T01:30:58;41.60;;;20.27;;
10633;SDS011;5365;51.640;8.106;2022-12-13T01:33:21;44.77;;;21.53;;
10633;SDS011;5365;51.640;8.106;2022-12-13T01:35:43;42.93;;;20.17;;
10633;SDS011;5365;51.640;8.106;2022-12-13T01:38:04;40.70;;;20.40;;
10633;SDS011;5365;51.640;8.106;2022-12-13T01:40:26;43.00;;;20.60;;
10633;SDS011;5365;51.640;8.106;2022-12-13T01:42:48;43.87;;;22.50;;
10633;SDS011;5365;51.640;8.106;2022-12-13T01:47:48;46.27;;;21.93;;
10633;SDS011;5365;51.640;8.106;2022-12-13T01:50:14;42.03;;;20.33;;
10633;SDS011;5365;51.640;8.106;2022-12-13T01:52:37;42.00;;;19.70;;
10633;SDS011;5365;51.640;8.106;2022-12-13T01:55:00;41.00;;;19.37;;
10633;SDS011;5365;51.640;8.106;2022-12-13T01:57:24;42.50;;;22.10;;
10633;SDS011;5365;51.640;8.106;2022-12-13T01:59:46;52.27;;;22.63;;
10633;SDS011;5365;51.640;8.106;2022-12-13T02:02:10;44.47;;;21.93;;
10633;SDS011;5365;51.640;8.106;2022-12-13T02:04:36;41.60;;;23.63;;
10633;SDS011;5365;51.640;8.106;2022-12-13T02:07:01;39.50;;;18.87;;
10633;SDS011;5365;51.640;8.106;2022-12-13T02:09:22;39.33;;;21.57;;
10633;SDS011;5365;51.640;8.106;2022-12-13T02:11:45;44.73;;;21.10;;
10633;SDS011;5365;51.640;8.106;2022-12-13T02:14:07;45.90;;;21.00;;
10633;SDS011;5365;51.640;8.106;2022-12-13T02:21:38;38.87;;;19.20;;
10633;SDS011;5365;51.640;8.106;2022-12-13T02:24:24;38.70;;;19.70;;
10633;SDS011;5365;51.640;8.106;2022-12-13T02:30:09;38.53;;;20.03;;
10633;SDS011;5365;51.640;8.106;2022-12-13T02:33:25;36.03;;;21.27;;
10633;SDS011;5365;51.640;8.106;2022-12-13T02:35:26;37.27;;;20.50;;
10633;SDS011;5365;51.640;8.106;2022-12-13T02:38:04;42.57;;;23.07;;
10633;SDS011;5365;51.640;8.106;2022-12-13T02:40:33;40.80;;;22.13;;
10633;SDS011;5365;51.640;8.106;2022-12-13T02:43:19;41.03;;;22.63;;
10633;SDS011;5365;51.640;8.106;2022-12-13T02:45:45;44.20;;;23.03;;
10633;SDS011;5365;51.640;8.106;2022-12-13T02:48:20;41.17;;;22.53;;
10633;SDS011;5365;51.640;8.106;2022-12-13T02:50:44;45.10;;;23.47;;
10633;SDS011;5365;51.640;8.106;2022-12-13T02:53:08;42.27;;;22.37;;
10633;SDS011;5365;51.640;8.106;2022-12-13T02:55:30;40.50;;;23.63;;
10633;SDS011;5365;51.640;8.106;2022-12-13T02:57:55;39.43;;;22.57;;
10633;SDS011;5365;51.640;8.106;2022-12-13T03:00:22;41.90;;;22.93;;
10633;SDS011;5365;51.640;8.106;2022-12-13T03:02:58;43.43;;;21.67;;
10633;SDS011;5365;51.640;8.106;2022-12-13T03:11:02;46.03;;;23.73;;
10633;SDS011;5365;51.640;8.106;2022-12-13T03:14:12;46.43;;;24.47;;
10633;SDS011;5365;51.640;8.106;2022-12-13T03:18:57;42.43;;;22.20;;
10633;SDS011;5365;51.640;8.106;2022-12-13T03:21:20;44.33;;;24.07;;
10633;SDS011;5365;51.640;8.106;2022-12-13T03:23:42;39.80;;;22.67;;
10633;SDS011;5365;51.640;8.106;2022-12-13T03:26:06;50.23;;;24.20;;
10633;SDS011;5365;51.640;8.106;2022-12-13T03:28:30;42.90;;;24.23;;
10633;SDS011;5365;51.640;8.106;2022-12-13T03:30:52;42.43;;;23.63;;
10633;SDS011;5365;51.640;8.106;2022-12-13T03:33:13;44.67;;;22.97;;
10633;SDS011;5365;51.640;8.106;2022-12-13T03:35:35;42.67;;;23.13;;
10633;SDS011;5365;51.640;8.106;2022-12-13T03:37:57;44.53;;;23.20;;
10633;SDS011;5365;51.640;8.106;2022-12-13T03:40:19;41.83;;;23.57;;
10633;SDS011;5365;51.640;8.106;2022-12-13T03:42:41;44.30;;;22.80;;
10633;SDS011;5365;51.640;8.106;2022-12-13T03:45:03;45.43;;;23.77;;
10633;SDS011;5365;51.640;8.106;2022-12-13T03:47:25;40.60;;;23.63;;
10633;SDS011;5365;51.640;8.106;2022-12-13T03:49:47;42.40;;;21.70;;
10633;SDS011;5365;51.640;8.106;2022-12-13T03:52:09;48.03;;;23.70;;
10633;SDS011;5365;51.640;8.106;2022-12-13T03:54:31;42.33;;;23.40;;
10633;SDS011;5365;51.640;8.106;2022-12-13T03:56:52;52.87;;;25.63;;
10633;SDS011;5365;51.640;8.106;2022-12-13T03:59:14;41.67;;;23.87;;
10633;SDS011;5365;51.640;8.106;2022-12-13T04:01:36;43.50;;;23.53;;
10633;SDS011;5365;51.640;8.106;2022-12-13T04:03:57;48.30;;;24.83;;
10633;SDS011;5365;51.640;8.106;2022-12-13T04:06:19;54.30;;;24.60;;
10633;SDS011;5365;51.640;8.106;2022-12-13T04:08:41;47.60;;;24.93;;
10633;SDS011;5365;51.640;8.106;2022-12-13T04:11:03;47.57;;;24.70;;
10633;SDS011;5365;51.640;8.106;2022-12-13T04:13:45;47.67;;;24.87;;
10633;SDS011;5365;51.640;8.106;2022-12-13T04:16:07;49.03;;;24.50;;
10633;SDS011;5365;51.640;8.106;2022-12-13T04:18:29;44.73;;;23.97;;
10633;SDS011;5365;51.640;8.106;2022-12-13T04:20:51;52.33;;;24.93;;
10633;SDS011;5365;51.640;8.106;2022-12-13T04:23:13;45.63;;;23.70;;
10633;SDS011;5365;51.640;8.106;2022-12-13T04:25:34;44.60;;;23.67;;
10633;SDS011;5365;51.640;8.106;2022-12-13T04:27:56;38.43;;;21.83;;
10633;SDS011;5365;51.640;8.106;2022-12-13T04:30:18;42.33;;;22.87;;
10633;SDS011;5365;51.640;8.106;2022-12-13T04:32:40;48.10;;;24.80;;
10633;SDS011;5365;51.640;8.106;2022-12-13T04:35:01;46.27;;;24.27;;
10633;SDS011;5365;51.640;8.106;2022-12-13T04:37:23;44.90;;;24.03;;
10633;SDS011;5365;51.640;8.106;2022-12-13T04:39:45;45.93;;;24.97;;
10633;SDS011;5365;51.640;8.106;2022-12-13T04:42:06;47.10;;;24.63;;
10633;SDS011;5365;51.640;8.106;2022-12-13T04:44:29;47.17;;;23.97;;
10633;SDS011;5365;51.640;8.106;2022-12-13T04:46:53;49.10;;;24.47;;
10633;SDS011;5365;51.640;8.106;2022-12-13T04:49:14;40.50;;;23.70;;
10633;SDS011;5365;51.640;8.106;2022-12-13T04:51:38;42.43;;;22.83;;
10633;SDS011;5365;51.640;8.106;2022-12-13T04:53:59;41.13;;;23.20;;
10633;SDS011;5365;51.640;8.106;2022-12-13T04:56:21;46.27;;;24.87;;
10633;SDS011;5365;51.640;8.106;2022-12-13T04:58:43;43.20;;;24.17;;
10633;SDS011;5365;51.640;8.106;2022-12-13T05:01:07;51.10;;;25.17;;
10633;SDS011;5365;51.640;8.106;2022-12-13T05:03:29;47.30;;;24.70;;
10633;SDS011;5365;51.640;8.106;2022-12-13T05:05:51;55.80;;;25.40;;
10633;SDS011;5365;51.640;8.106;2022-12-13T05:08:13;48.13;;;25.97;;
10633;SDS011;5365;51.640;8.106;2022-12-13T05:10:35;54.03;;;27.27;;
10633;SDS011;5365;51.640;8.106;2022-12-13T05:12:58;55.07;;;26.40;;
10633;SDS011;5365;51.640;8.106;2022-12-13T05:15:20;47.67;;;24.77;;
10633;SDS011;5365;51.640;8.106;2022-12-13T05:17:42;51.13;;;26.13;;
10633;SDS011;5365;51.640;8.106;2022-12-13T05:20:04;52.07;;;24.53;;
10633;SDS011;5365;51.640;8.106;2022-12-13T05:22:26;50.93;;;25.80;;
10633;SDS011;5365;51.640;8.106;2022-12-13T05:24:48;48.17;;;24.27;;
10633;SDS011;5365;51.640;8.106;2022-12-13T05:27:10;49.50;;;25.50;;
10633;SDS011;5365;51.640;8.106;2022-12-13T05:29:32;48.43;;;24.50;;
10633;SDS011;5365;51.640;8.106;2022-12-13T05:31:53;43.80;;;23.77;;
10633;SDS011;5365;51.640;8.106;2022-12-13T05:34:15;46.73;;;24.67;;
10633;SDS011;5365;51.640;8.106;2022-12-13T05:36:37;44.00;;;23.90;;
10633;SDS011;5365;51.640;8.106;2022-12-13T05:38:59;44.30;;;24.23;;
10633;SDS011;5365;51.640;8.106;2022-12-13T05:41:21;47.47;;;24.87;;
10633;SDS011;5365;51.640;8.106;2022-12-13T05:43:45;46.90;;;24.77;;
10633;SDS011;5365;51.640;8.106;2022-12-13T05:46:07;48.00;;;26.27;;
10633;SDS011;5365;51.640;8.106;2022-12-13T05:48:28;44.70;;;25.30;;
10633;SDS011;5365;51.640;8.106;2022-12-13T05:50:50;44.13;;;23.63;;
10633;SDS011;5365;51.640;8.106;2022-12-13T05:53:13;45.33;;;23.57;;
10633;SDS011;5365;51.640;8.106;2022-12-13T05:55:36;50.17;;;24.70;;
10633;SDS011;5365;51.640;8.106;2022-12-13T05:57:58;45.03;;;25.87;;
10633;SDS011;5365;51.640;8.106;2022-12-13T06:00:20;45.93;;;25.30;;
10633;SDS011;5365;51.640;8.106;2022-12-13T06:02:42;43.77;;;24.63;;
10633;SDS011;5365;51.640;8.106;2022-12-13T06:05:05;44.77;;;25.67;;
10633;SDS011;5365;51.640;8.106;2022-12-13T06:07:27;40.33;;;24.07;;
10633;SDS011;5365;51.640;8.106;2022-12-13T06:09:49;45.63;;;24.53;;
10633;SDS011;5365;51.640;8.106;2022-12-13T06:12:10;44.47;;;24.37;;
10633;SDS011;5365;51.640;8.106;2022-12-13T06:14:32;44.63;;;24.37;;
10633;SDS011;5365;51.640;8.106;2022-12-13T06:16:55;42.67;;;23.87;;
10633;SDS011;5365;51.640;8.106;2022-12-13T06:19:17;43.30;;;23.50;;
10633;SDS011;5365;51.640;8.106;2022-12-13T06:21:39;36.43;;;21.93;;
10633;SDS011;5365;51.640;8.106;2022-12-13T06:24:04;45.13;;;23.20;;
10633;SDS011;5365;51.640;8.106;2022-12-13T06:26:26;44.63;;;23.97;;
10633;SDS011;5365;51.640;8.106;2022-12-13T06:28:48;42.23;;;23.27;;
10633;SDS011;5365;51.640;8.106;2022-12-13T06:31:09;40.73;;;21.90;;
10633;SDS011;5365;51.640;8.106;2022-12-13T06:33:31;44.40;;;21.87;;
10633;SDS011;5365;51.640;8.106;2022-12-13T06:35:57;41.07;;;22.57;;
10633;SDS011;5365;51.640;8.106;2022-12-13T06:38:19;42.30;;;22.30;;
10633;SDS011;5365;51.640;8.106;2022-12-13T06:40:40;39.57;;;21.37;;
10633;SDS011;5365;51.640;8.106;2022-12-13T06:43:03;44.37;;;21.87;;
10633;SDS011;5365;51.640;8.106;2022-12-13T06:45:25;35.43;;;20.00;;
10633;SDS011;5365;51.640;8.106;2022-12-13T06:47:46;34.27;;;19.43;;
10633;SDS011;5365;51.640;8.106;2022-12-13T06:50:08;36.17;;;19.07;;
10633;SDS011;5365;51.640;8.106;2022-12-13T06:52:30;36.73;;;20.30;;
10633;SDS011;5365;51.640;8.106;2022-12-13T06:54:52;32.67;;;19.77;;
10633;SDS011;5365;51.640;8.106;2022-12-13T06:57:17;34.33;;;19.20;;
10633;SDS011;5365;51.640;8.106;2022-12-13T06:59:38;36.83;;;21.00;;
10633;SDS011;5365;51.640;8.106;2022-12-13T07:02:01;34.90;;;21.53;;
10633;SDS011;5365;51.640;8.106;2022-12-13T07:04:23;33.43;;;19.60;;
10633;SDS011;5365;51.640;8.106;2022-12-13T07:06:45;39.90;;;20.97;;
10633;SDS011;5365;51.640;8.106;2022-12-13T07:09:07;36.00;;;20.00;;
10633;SDS011;5365;51.640;8.106;2022-12-13T07:11:29;41.13;;;20.77;;
10633;SDS011;5365;51.640;8.106;2022-12-13T07:13:52;40.93;;;20.70;;
10633;SDS011;5365;51.640;8.106;2022-12-13T07:16:14;39.73;;;22.10;;
10633;SDS011;5365;51.640;8.106;2022-12-13T07:18:36;36.40;;;21.83;;
10633;SDS011;5365;51.640;8.106;2022-12-13T07:20:58;40.10;;;22.43;;
10633;SDS011;5365;51.640;8.106;2022-12-13T07:23:20;38.00;;;22.07;;
10633;SDS011;5365;51.640;8.106;2022-12-13T07:25:41;39.43;;;21.00;;
10633;SDS011;5365;51.640;8.106;2022-12-13T07:28:05;42.90;;;22.13;;
10633;SDS011;5365;51.640;8.106;2022-12-13T07:30:35;40.27;;;22.27;;
10633;SDS011;5365;51.640;8.106;2022-12-13T07:32:59;41.10;;;20.87;;
10633;SDS011;5365;51.640;8.106;2022-12-13T07:35:22;36.10;;;21.53;;
10633;SDS011;5365;51.640;8.106;2022-12-13T07:37:44;35.80;;;22.07;;
10633;SDS011;5365;51.640;8.106;2022-12-13T07:40:06;40.13;;;21.97;;
10633;SDS011;5365;51.640;8.106;2022-12-13T07:42:28;35.50;;;20.93;;
10633;SDS011;5365;51.640;8.106;2022-12-13T07:44:50;41.97;;;20.73;;
10633;SDS011;5365;51.640;8.106;2022-12-13T07:47:12;37.53;;;20.03;;
10633;SDS011;5365;51.640;8.106;2022-12-13T07:49:33;39.40;;;21.00;;
10633;SDS011;5365;51.640;8.106;2022-12-13T07:51:56;33.70;;;20.10;;
10633;SDS011;5365;51.640;8.106;2022-12-13T07:54:17;40.20;;;21.00;;
10633;SDS011;5365;51.640;8.106;2022-12-13T07:56:39;35.83;;;20.27;;
10633;SDS011;5365;51.640;8.106;2022-12-13T07:59:01;33.00;;;19.77;;
10633;SDS011;5365;51.640;8.106;2022-12-13T08:01:23;36.40;;;19.83;;
10633;SDS011;5365;51.640;8.106;2022-12-13T08:03:48;31.90;;;18.63;;
10633;SDS011;5365;51.640;8.106;2022-12-13T08:06:10;38.83;;;20.57;;
10633;SDS011;5365;51.640;8.106;2022-12-13T08:08:32;35.73;;;20.57;;
10633;SDS011;5365;51.640;8.106;2022-12-13T08:10:54;34.67;;;20.03;;
10633;SDS011;5365;51.640;8.106;2022-12-13T08:13:16;42.53;;;21.93;;
10633;SDS011;5365;51.640;8.106;2022-12-13T08:15:38;41.53;;;21.43;;
10633;SDS011;5365;51.640;8.106;2022-12-13T08:18:00;42.13;;;22.10;;
10633;SDS011;5365;51.640;8.106;2022-12-13T08:20:22;41.17;;;22.13;;
10633;SDS011;5365;51.640;8.106;2022-12-13T08:22:43;43.23;;;22.50;;
10633;SDS011;5365;51.640;8.106;2022-12-13T08:25:06;39.70;;;22.43;;
10633;SDS011;5365;51.640;8.106;2022-12-13T08:27:28;41.70;;;22.10;;
10633;SDS011;5365;51.640;8.106;2022-12-13T08:29:50;36.77;;;20.77;;
10633;SDS011;5365;51.640;8.106;2022-12-13T08:32:11;39.47;;;20.70;;
10633;SDS011;5365;51.640;8.106;2022-12-13T08:34:33;36.13;;;19.90;;
10633;SDS011;5365;51.640;8.106;2022-12-13T08:36:58;38.03;;;21.30;;
10633;SDS011;5365;51.640;8.106;2022-12-13T08:39:20;35.27;;;19.53;;
10633;SDS011;5365;51.640;8.106;2022-12-13T08:41:42;40.80;;;20.80;;
10633;SDS011;5365;51.640;8.106;2022-12-13T08:44:04;32.37;;;19.83;;
10633;SDS011;5365;51.640;8.106;2022-12-13T08:46:27;34.60;;;20.73;;
10633;SDS011;5365;51.640;8.106;2022-12-13T08:48:51;36.70;;;20.63;;
10633;SDS011;5365;51.640;8.106;2022-12-13T08:51:13;34.87;;;18.97;;
10633;SDS011;5365;51.640;8.106;2022-12-13T08:53:36;38.00;;;19.20;;
10633;SDS011;5365;51.640;8.106;2022-12-13T08:56:04;33.70;;;19.43;;
10633;SDS011;5365;51.640;8.106;2022-12-13T08:58:31;37.53;;;19.83;;
10633;SDS011;5365;51.640;8.106;2022-12-13T09:00:52;35.57;;;20.30;;
10633;SDS011;5365;51.640;8.106;2022-12-13T09:03:14;38.27;;;21.30;;
10633;SDS011;5365;51.640;8.106;2022-12-13T09:05:36;35.37;;;20.00;;
10633;SDS011;5365;51.640;8.106;2022-12-13T09:07:58;35.23;;;19.23;;
10633;SDS011;5365;51.640;8.106;2022-12-13T09:10:22;30.83;;;17.33;;
10633;SDS011;5365;51.640;8.106;2022-12-13T09:12:44;35.07;;;16.57;;
10633;SDS011;5365;51.640;8.106;2022-12-13T09:15:06;30.90;;;14.83;;
10633;SDS011;5365;51.640;8.106;2022-12-13T09:17:29;34.43;;;16.50;;
10633;SDS011;5365;51.640;8.106;2022-12-13T09:19:52;30.83;;;16.00;;
10633;SDS011;5365;51.640;8.106;2022-12-13T09:22:13;27.43;;;15.20;;
10633;SDS011;5365;51.640;8.106;2022-12-13T09:24:36;30.40;;;15.47;;
10633;SDS011;5365;51.640;8.106;2022-12-13T09:26:58;26.77;;;13.87;;
10633;SDS011;5365;51.640;8.106;2022-12-13T09:29:20;31.17;;;16.37;;
10633;SDS011;5365;51.640;8.106;2022-12-13T09:31:42;29.27;;;15.27;;
10633;SDS011;5365;51.640;8.106;2022-12-13T09:34:05;27.47;;;14.07;;
10633;SDS011;5365;51.640;8.106;2022-12-13T09:36:27;26.87;;;15.10;;
10633;SDS011;5365;51.640;8.106;2022-12-13T09:38:50;29.67;;;15.63;;
10633;SDS011;5365;51.640;8.106;2022-12-13T09:41:29;27.60;;;14.37;;
10633;SDS011;5365;51.640;8.106;2022-12-13T09:43:57;30.00;;;15.00;;
10633;SDS011;5365;51.640;8.106;2022-12-13T09:48:49;25.03;;;14.13;;
10633;SDS011;5365;51.640;8.106;2022-12-13T09:51:12;27.53;;;13.73;;
10633;SDS011;5365;51.640;8.106;2022-12-13T09:53:34;26.07;;;14.53;;
10633;SDS011;5365;51.640;8.106;2022-12-13T09:55:56;27.23;;;14.47;;
10633;SDS011;5365;51.640;8.106;2022-12-13T10:00:50;24.47;;;14.67;;
10633;SDS011;5365;51.640;8.106;2022-12-13T10:03:13;28.50;;;15.37;;
10633;SDS011;5365;51.640;8.106;2022-12-13T10:05:37;28.90;;;15.67;;
10633;SDS011;5365;51.640;8.106;2022-12-13T10:08:03;31.53;;;14.93;;
10633;SDS011;5365;51.640;8.106;2022-12-13T10:10:35;27.13;;;13.97;;
10633;SDS011;5365;51.640;8.106;2022-12-13T10:15:39;25.57;;;14.57;;
10633;SDS011;5365;51.640;8.106;2022-12-13T10:18:02;24.90;;;14.87;;
10633;SDS011;5365;51.640;8.106;2022-12-13T10:20:24;26.17;;;14.93;;
10633;SDS011;5365;51.640;8.106;2022-12-13T10:22:49;27.13;;;14.80;;
10633;SDS011;5365;51.640;8.106;2022-12-13T10:28:11;23.30;;;14.50;;
10633;SDS011;5365;51.640;8.106;2022-12-13T10:30:38;25.43;;;12.93;;
10633;SDS011;5365;51.640;8.106;2022-12-13T10:33:01;23.47;;;14.00;;
10633;SDS011;5365;51.640;8.106;2022-12-13T10:35:32;22.37;;;14.17;;
10633;SDS011;5365;51.640;8.106;2022-12-13T10:37:56;25.70;;;13.40;;
10633;SDS011;5365;51.640;8.106;2022-12-13T10:45:41;20.90;;;12.83;;
10633;SDS011;5365;51.640;8.106;2022-12-13T10:48:04;26.33;;;13.53;;
10633;SDS011;5365;51.640;8.106;2022-12-13T10:50:27;22.23;;;13.17;;
10633;SDS011;5365;51.640;8.106;2022-12-13T10:52:49;22.87;;;13.23;;
10633;SDS011;5365;51.640;8.106;2022-12-13T10:55:29;22.33;;;12.90;;
10633;SDS011;5365;51.640;8.106;2022-12-13T10:57:54;23.47;;;12.33;;
10633;SDS011;5365;51.640;8.106;2022-12-13T11:02:55;22.47;;;12.13;;
10633;SDS011;5365;51.640;8.106;2022-12-13T11:07:43;20.13;;;11.80;;
10633;SDS011;5365;51.640;8.106;2022-12-13T11:10:20;21.67;;;12.33;;
10633;SDS011;5365;51.640;8.106;2022-12-13T11:12:45;22.60;;;12.17;;
10633;SDS011;5365;51.640;8.106;2022-12-13T11:15:12;18.57;;;11.70;;
10633;SDS011;5365;51.640;8.106;2022-12-13T11:17:37;17.57;;;11.63;;
10633;SDS011;5365;51.640;8.106;2022-12-13T11:20:14;20.07;;;12.27;;
10633;SDS011;5365;51.640;8.106;2022-12-13T11:22:38;20.03;;;12.13;;
10633;SDS011;5365;51.640;8.106;2022-12-13T11:25:01;21.87;;;12.77;;
10633;SDS011;5365;51.640;8.106;2022-12-13T11:30:29;21.33;;;11.73;;
10633;SDS011;5365;51.640;8.106;2022-12-13T11:35:20;17.50;;;10.43;;
10633;SDS011;5365;51.640;8.106;2022-12-13T11:40:17;15.97;;;10.30;;
10633;SDS011;5365;51.640;8.106;2022-12-13T11:42:43;16.10;;;10.90;;
10633;SDS011;5365;51.640;8.106;2022-12-13T11:45:14;17.57;;;10.23;;
10633;SDS011;5365;51.640;8.106;2022-12-13T11:47:47;16.43;;;10.83;;
10633;SDS011;5365;51.640;8.106;2022-12-13T11:50:16;17.67;;;10.90;;
10633;SDS011;5365;51.640;8.106;2022-12-13T11:52:43;18.13;;;11.17;;
10633;SDS011;5365;51.640;8.106;2022-12-13T11:55:14;14.57;;;10.03;;
10633;SDS011;5365;51.640;8.106;2022-12-13T12:08:59;18.73;;;10.83;;
10633;SDS011;5365;51.640;8.106;2022-12-13T12:12:25;19.13;;;11.23;;
10633;SDS011;5365;51.640;8.106;2022-12-13T12:14:45;20.73;;;12.00;;
10633;SDS011;5365;51.640;8.106;2022-12-13T12:17:15;18.87;;;10.37;;
10633;SDS011;5365;51.640;8.106;2022-12-13T12:19:40;21.73;;;11.17;;
10633;SDS011;5365;51.640;8.106;2022-12-13T12:27:56;18.53;;;11.43;;
10633;SDS011;5365;51.640;8.106;2022-12-13T12:30:31;17.90;;;10.80;;
10633;SDS011;5365;51.640;8.106;2022-12-13T13:00:03;16.90;;;10.67;;
10633;SDS011;5365;51.640;8.106;2022-12-13T13:02:40;16.57;;;11.00;;
10633;SDS011;5365;51.640;8.106;2022-12-13T13:05:10;17.37;;;11.27;;
10633;SDS011;5365;51.640;8.106;2022-12-13T13:07:35;16.80;;;11.87;;
10633;SDS011;5365;51.640;8.106;2022-12-13T13:10:01;21.03;;;12.47;;
10633;SDS011;5365;51.640;8.106;2022-12-13T13:12:24;19.03;;;11.67;;
10633;SDS011;5365;51.640;8.106;2022-12-13T13:14:47;21.60;;;12.63;;
10633;SDS011;5365;51.640;8.106;2022-12-13T13:19:39;19.27;;;11.87;;
10633;SDS011;5365;51.640;8.106;2022-12-13T13:22:03;23.07;;;13.33;;
10633;SDS011;5365;51.640;8.106;2022-12-13T13:24:27;24.27;;;14.03;;
10633;SDS011;5365;51.640;8.106;2022-12-13T13:26:56;19.90;;;13.00;;
10633;SDS011;5365;51.640;8.106;2022-12-13T13:31:55;21.67;;;12.97;;
10633;SDS011;5365;51.640;8.106;2022-12-13T13:36:55;23.00;;;12.77;;
10633;SDS011;5365;51.640;8.106;2022-12-13T13:39:18;21.77;;;13.47;;
10633;SDS011;5365;51.640;8.106;2022-12-13T13:47:09;22.77;;;13.63;;
10633;SDS011;5365;51.640;8.106;2022-12-13T13:49:32;23.17;;;14.10;;
10633;SDS011;5365;51.640;8.106;2022-12-13T13:52:02;21.17;;;13.37;;
10633;SDS011;5365;51.640;8.106;2022-12-13T14:23:24;22.60;;;13.80;;
10633;SDS011;5365;51.640;8.106;2022-12-13T14:30:57;22.97;;;13.47;;
10633;SDS011;5365;51.640;8.106;2022-12-13T14:33:22;24.30;;;13.80;;
10633;SDS011;5365;51.640;8.106;2022-12-13T14:35:58;26.27;;;14.13;;
10633;SDS011;5365;51.640;8.106;2022-12-13T14:38:22;24.87;;;14.03;;
10633;SDS011;5365;51.640;8.106;2022-12-13T14:40:47;24.30;;;13.93;;
10633;SDS011;5365;51.640;8.106;2022-12-13T14:43:20;24.67;;;13.67;;
10633;SDS011;5365;51.640;8.106;2022-12-13T14:45:43;23.87;;;13.70;;
10633;SDS011;5365;51.640;8.106;2022-12-13T14:48:09;25.60;;;13.73;;
10633;SDS011;5365;51.640;8.106;2022-12-13T14:50:34;24.00;;;13.23;;
10633;SDS011;5365;51.640;8.106;2022-12-13T14:52:57;24.23;;;13.60;;
10633;SDS011;5365;51.640;8.106;2022-12-13T14:55:21;27.13;;;14.13;;
10633;SDS011;5365;51.640;8.106;2022-12-13T14:57:49;21.83;;;12.83;;
10633;SDS011;5365;51.640;8.106;2022-12-13T15:00:20;21.40;;;13.30;;
10633;SDS011;5365;51.640;8.106;2022-12-13T15:02:50;22.50;;;12.40;;
10633;SDS011;5365;51.640;8.106;2022-12-13T15:05:13;23.53;;;12.83;;
10633;SDS011;5365;51.640;8.106;2022-12-13T15:07:45;21.33;;;12.70;;
10633;SDS011;5365;51.640;8.106;2022-12-13T15:10:29;25.03;;;14.03;;
10633;SDS011;5365;51.640;8.106;2022-12-13T15:12:54;24.57;;;13.87;;
10633;SDS011;5365;51.640;8.106;2022-12-13T15:15:26;24.50;;;14.00;;
10633;SDS011;5365;51.640;8.106;2022-12-13T15:18:03;22.63;;;13.67;;
10633;SDS011;5365;51.640;8.106;2022-12-13T15:20:39;23.37;;;13.33;;
10633;SDS011;5365;51.640;8.106;2022-12-13T15:23:06;21.70;;;13.07;;
10633;SDS011;5365;51.640;8.106;2022-12-13T15:25:36;27.50;;;14.77;;
10633;SDS011;5365;51.640;8.106;2022-12-13T15:27:58;27.53;;;14.63;;
10633;SDS011;5365;51.640;8.106;2022-12-13T15:30:21;29.00;;;14.43;;
10633;SDS011;5365;51.640;8.106;2022-12-13T15:35:28;27.13;;;14.80;;
10633;SDS011;5365;51.640;8.106;2022-12-13T15:37:50;28.13;;;14.67;;
10633;SDS011;5365;51.640;8.106;2022-12-13T15:40:12;29.10;;;15.60;;
10633;SDS011;5365;51.640;8.106;2022-12-13T15:42:35;32.63;;;17.10;;
10633;SDS011;5365;51.640;8.106;2022-12-13T15:45:00;35.23;;;17.03;;
10633;SDS011;5365;51.640;8.106;2022-12-13T15:47:25;34.43;;;16.43;;
10633;SDS011;5365;51.640;8.106;2022-12-13T15:49:55;32.50;;;17.67;;
10633;SDS011;5365;51.640;8.106;2022-12-13T15:55:01;29.80;;;16.07;;
10633;SDS011;5365;51.640;8.106;2022-12-13T15:57:28;31.93;;;15.10;;
10633;SDS011;5365;51.640;8.106;2022-12-13T16:00:03;34.80;;;17.07;;
10633;SDS011;5365;51.640;8.106;2022-12-13T16:02:32;31.57;;;15.90;;
10633;SDS011;5365;51.640;8.106;2022-12-13T16:05:03;32.33;;;15.87;;
10633;SDS011;5365;51.640;8.106;2022-12-13T16:07:28;26.17;;;14.93;;
10633;SDS011;5365;51.640;8.106;2022-12-13T16:09:56;30.57;;;15.57;;
10633;SDS011;5365;51.640;8.106;2022-12-13T16:13:04;30.67;;;15.93;;
10633;SDS011;5365;51.640;8.106;2022-12-13T16:15:27;24.20;;;13.57;;
10633;SDS011;5365;51.640;8.106;2022-12-13T16:17:53;28.60;;;14.20;;
10633;SDS011;5365;51.640;8.106;2022-12-13T16:20:17;26.50;;;13.87;;
10633;SDS011;5365;51.640;8.106;2022-12-13T16:22:41;23.50;;;13.93;;
10633;SDS011;5365;51.640;8.106;2022-12-13T16:25:03;26.97;;;13.87;;
10633;SDS011;5365;51.640;8.106;2022-12-13T16:27:25;24.53;;;14.07;;
10633;SDS011;5365;51.640;8.106;2022-12-13T16:29:47;26.93;;;14.70;;
10633;SDS011;5365;51.640;8.106;2022-12-13T16:32:09;27.80;;;14.33;;
10633;SDS011;5365;51.640;8.106;2022-12-13T16:34:31;30.00;;;14.23;;
10633;SDS011;5365;51.640;8.106;2022-12-13T16:36:53;27.47;;;15.13;;
10633;SDS011;5365;51.640;8.106;2022-12-13T16:39:16;30.23;;;15.97;;
10633;SDS011;5365;51.640;8.106;2022-12-13T16:41:38;27.30;;;14.70;;